createdAt,value
2019-04-26T00:02:59.024Z,1.30
2019-04-26T00:08:06.905Z,1.38
2019-04-26T00:13:14.712Z,1.37
2019-04-26T00:18:22.563Z,1.41
2019-04-26T00:23:30.212Z,1.44
2019-04-26T00:28:38.068Z,1.48
2019-04-26T00:33:45.665Z,1.54
2019-04-26T00:38:53.621Z,1.62
2019-04-26T00:44:01.445Z,1.49
2019-04-26T00:49:09.306Z,1.62
2019-04-26T00:54:17.785Z,1.62
2019-04-26T00:59:24.691Z,1.73
2019-04-26T01:04:31.362Z,1.88
2019-04-26T01:09:39.206Z,1.88
2019-04-26T01:14:47.807Z,1.75
2019-04-26T01:19:55.537Z,1.88
2019-04-26T01:25:03.226Z,1.96
2019-04-26T01:30:10.990Z,1.71
2019-04-26T01:35:19.344Z,1.90
2019-04-26T01:40:26.172Z,2.08
2019-04-26T01:45:33.880Z,2.08
2019-04-26T01:50:41.588Z,1.94
2019-04-26T01:55:49.257Z,2.06
2019-04-26T02:00:57.057Z,2.01
2019-04-26T02:06:04.856Z,2.33
2019-04-26T02:11:12.650Z,2.29
2019-04-26T02:16:20.586Z,2.28
2019-04-26T02:21:28.400Z,2.22
2019-04-26T02:26:36.032Z,2.35
2019-04-26T02:31:44.889Z,2.08
2019-04-26T02:36:57.701Z,2.51
2019-04-26T02:41:59.882Z,2.26
2019-04-26T02:47:07.621Z,2.41
2019-04-26T02:52:15.626Z,2.31
2019-04-26T02:57:23.669Z,2.54
2019-04-26T03:02:33.280Z,2.59
2019-04-26T03:07:39.129Z,2.55
2019-04-26T03:12:46.008Z,2.80
2019-04-26T03:17:53.687Z,2.76
2019-04-26T03:23:01.396Z,2.56
2019-04-26T03:28:09.133Z,2.55
2019-04-26T03:33:16.949Z,2.76
2019-04-26T03:38:24.290Z,2.68
2019-04-26T03:43:34.418Z,2.83
2019-04-26T03:48:39.942Z,2.55
2019-04-26T03:53:46.605Z,2.84
2019-04-26T03:58:54.262Z,3.01
2019-04-26T04:04:02.343Z,3.96
2019-04-26T04:09:12.124Z,3.86
2019-04-26T04:14:20.695Z,4.16
2019-04-26T04:19:28.265Z,4.07
2019-04-26T04:24:36.102Z,4.49
2019-04-26T04:29:49.012Z,4.35
2019-04-26T04:34:52.754Z,4.56
2019-04-26T04:39:58.944Z,4.44
2019-04-26T04:45:06.849Z,5.08
2019-04-26T04:50:14.873Z,5.37
2019-04-26T04:55:22.668Z,5.64
2019-04-26T05:00:30.519Z,5.38
2019-04-26T05:05:38.612Z,6.37
2019-04-26T05:10:47.578Z,5.82
2019-04-26T05:15:54.839Z,6.55
2019-04-26T05:21:01.029Z,7.06
2019-04-26T05:26:08.966Z,7.11
2019-04-26T05:31:16.689Z,7.18
2019-04-26T05:36:24.422Z,7.56
2019-04-26T05:41:32.201Z,7.91
2019-04-26T05:46:39.900Z,7.99
2019-04-26T05:51:47.713Z,7.56
2019-04-26T05:56:56.253Z,7.98
2019-04-26T06:02:02.613Z,7.50
2019-04-26T06:07:10.933Z,7.69
2019-04-26T06:12:18.689Z,8.03
2019-04-26T06:17:26.476Z,9.22
2019-04-26T06:22:34.377Z,8.58
2019-04-26T06:27:42.121Z,9.68
2019-04-26T06:32:56.424Z,9.84
2019-04-26T06:37:57.485Z,9.57
2019-04-26T06:43:05.180Z,9.07
2019-04-26T06:48:14.193Z,9.23
2019-04-26T06:53:21.920Z,8.38
2019-04-26T06:58:29.629Z,9.22
2019-04-26T07:03:37.359Z,8.73
2019-04-26T07:08:56.672Z,8.14
2019-04-26T07:13:52.616Z,7.54
2019-04-26T07:19:01.376Z,7.16
2019-04-26T07:24:09.070Z,7.59
2019-04-26T07:29:16.777Z,7.69
2019-04-26T07:34:24.428Z,6.95
2019-04-26T07:39:32.868Z,7.59
2019-04-26T07:44:40.557Z,7.96
2019-04-26T07:49:48.653Z,7.31
2019-04-26T07:54:56.594Z,7.43
2019-04-26T08:00:04.338Z,7.97
2019-04-26T08:05:12.009Z,8.24
2019-04-26T08:10:19.696Z,8.52
2019-04-26T08:15:27.454Z,8.52
2019-04-26T08:20:35.097Z,8.66
2019-04-26T08:25:42.897Z,7.92
2019-04-26T08:30:50.530Z,9.49
2019-04-26T08:35:58.261Z,8.11
2019-04-26T08:41:08.076Z,9.57
2019-04-26T08:46:13.366Z,9.13
2019-04-26T08:51:22.063Z,8.99
2019-04-26T08:56:28.262Z,9.20
2019-04-26T09:01:36.004Z,9.57
2019-04-26T09:06:43.766Z,9.00
2019-04-26T09:11:59.604Z,9.25
2019-04-26T09:16:58.893Z,9.06
2019-04-26T09:22:12.883Z,9.26
2019-04-26T09:27:17.169Z,8.97
2019-04-26T09:32:24.220Z,9.85
2019-04-26T09:37:28.742Z,9.59
2019-04-26T09:42:39.265Z,8.34
2019-04-26T09:47:43.968Z,8.53
2019-04-26T09:52:51.697Z,9.05
2019-04-26T09:57:59.381Z,8.69
2019-04-26T10:03:09.314Z,8.45
2019-04-26T10:08:14.590Z,8.32
2019-04-26T10:13:21.747Z,8.81
2019-04-26T10:18:29.461Z,8.10
2019-04-26T10:23:37.141Z,9.09
2019-04-26T10:28:46.751Z,10.27
2019-04-26T10:33:52.098Z,11.39
2019-04-26T10:39:01.180Z,10.90
2019-04-26T10:44:08.896Z,11.37
2019-04-26T10:49:20.206Z,11.01
2019-04-26T10:54:24.198Z,10.42
2019-04-26T10:59:31.980Z,8.46
2019-04-26T11:04:41.477Z,7.59
2019-04-26T11:09:47.862Z,5.91
2019-04-26T11:14:56.950Z,5.02
2019-04-26T11:20:06.218Z,4.51
2019-04-26T11:25:11.241Z,4.46
2019-04-26T11:30:20.862Z,4.52
2019-04-26T11:35:29.243Z,3.93
2019-04-26T11:40:33.475Z,4.11
2019-04-26T11:45:41.121Z,3.69
2019-04-26T11:50:52.191Z,3.53
2019-04-26T11:56:00.293Z,4.11
2019-04-26T12:01:04.055Z,3.95
2019-04-26T12:06:11.872Z,4.09
2019-04-26T12:11:26.174Z,4.86
2019-04-26T12:16:28.313Z,4.31
2019-04-26T12:21:36.053Z,4.09
2019-04-26T12:26:46.249Z,3.92
2019-04-26T12:31:51.749Z,5.20
2019-04-26T12:36:59.495Z,4.70
2019-04-26T12:42:12.120Z,5.13
2019-04-26T12:47:15.879Z,5.38
2019-04-26T12:52:23.943Z,6.64
2019-04-26T12:57:31.663Z,7.67
2019-04-26T13:02:39.839Z,8.35
2019-04-26T13:07:47.700Z,8.52
2019-04-26T13:12:55.663Z,9.32
2019-04-26T13:18:07.321Z,11.72
2019-04-26T13:23:12.454Z,12.05
2019-04-26T13:28:21.870Z,13.15
2019-04-26T13:33:29.200Z,13.34
2019-04-26T13:38:39.381Z,13.71
2019-04-26T13:43:45.613Z,15.38
2019-04-26T13:48:45.247Z,16.01
2019-04-26T13:53:51.003Z,15.25
2019-04-26T13:58:59.810Z,15.77
2019-04-26T14:04:06.800Z,15.71
2019-04-26T14:09:13.543Z,15.93
2019-04-26T14:14:21.727Z,16.84
2019-04-26T14:19:29.642Z,18.10
2019-04-26T14:24:37.627Z,17.60
2019-04-26T14:29:46.553Z,17.19
2019-04-26T14:34:54.616Z,16.92
2019-04-26T14:40:16.840Z,17.82
2019-04-26T14:45:22.454Z,18.22
2019-04-26T14:50:17.643Z,18.69
2019-04-26T14:55:25.390Z,19.13
2019-04-26T15:00:33.968Z,19.00
2019-04-26T15:05:43.124Z,20.42
2019-04-26T15:10:49.099Z,20.07
2019-04-26T15:15:55.691Z,19.95
2019-04-26T15:21:04.239Z,21.71
2019-04-26T15:26:12.839Z,20.16
2019-04-26T15:31:21.746Z,21.22
2019-04-26T15:36:26.758Z,19.92
2019-04-26T15:41:34.599Z,20.77
2019-04-26T15:46:48.332Z,21.41
2019-04-26T15:51:49.797Z,22.18
2019-04-26T15:56:57.494Z,21.70
2019-04-26T16:02:05.303Z,23.42
2019-04-26T16:07:21.833Z,22.76
2019-04-26T16:12:24.573Z,22.27
2019-04-26T16:17:29.233Z,22.57
2019-04-26T16:22:37.103Z,22.76
2019-04-26T16:27:46.182Z,21.84
2019-04-26T16:32:58.873Z,22.42
2019-04-26T16:38:06.854Z,21.83
2019-04-26T16:43:10.542Z,20.60
2019-04-26T16:48:22.162Z,19.74
2019-04-26T16:53:43.692Z,20.79
2019-04-26T16:58:38.279Z,20.91
2019-04-26T17:03:45.213Z,21.74
2019-04-26T17:08:52.288Z,20.97
2019-04-26T17:13:57.035Z,20.93
2019-04-26T17:19:03.863Z,22.26
2019-04-26T17:24:12.198Z,21.71
2019-04-26T17:29:19.266Z,23.36
2019-04-26T17:34:29.062Z,23.40
2019-04-26T17:39:34.709Z,23.23
2019-04-26T17:44:42.555Z,22.87
2019-04-26T17:49:52.279Z,24.43
2019-04-26T17:54:58.238Z,23.69
2019-04-26T18:00:07.831Z,25.74
2019-04-26T18:05:13.369Z,25.31
2019-04-26T18:10:21.811Z,24.48
2019-04-26T18:15:29.872Z,23.72
2019-04-26T18:20:41.428Z,22.62
2019-04-26T18:25:46.360Z,22.82
2019-04-26T18:30:53.127Z,24.34
2019-04-26T18:36:00.057Z,24.86
2019-04-26T18:41:07.922Z,23.59
2019-04-26T18:46:16.201Z,24.26
2019-04-26T18:51:24.249Z,21.35
2019-04-26T18:56:36.999Z,23.29
2019-04-26T19:01:41.804Z,22.91
2019-04-26T19:06:47.350Z,24.22
2019-04-26T19:11:56.275Z,25.06
2019-04-26T19:17:02.410Z,24.68
2019-04-26T19:22:15.501Z,25.29
2019-04-26T19:27:22.582Z,25.47
2019-04-26T19:32:25.342Z,24.72
2019-04-26T19:37:36.666Z,24.64
2019-04-26T19:42:42.038Z,24.59
2019-04-26T19:47:48.032Z,25.03
2019-04-26T19:52:56.775Z,22.89
2019-04-26T19:58:04.684Z,24.98
2019-04-26T20:03:15.781Z,24.99
2019-04-26T20:08:21.524Z,25.90
2019-04-26T20:13:27.384Z,25.81
2019-04-26T20:18:38.747Z,23.24
2019-04-26T20:23:47.062Z,23.64
2019-04-26T20:28:51.388Z,23.99
2019-04-26T20:33:58.474Z,24.41
2019-04-26T20:39:06.701Z,24.17
2019-04-26T20:44:14.510Z,23.58
2019-04-26T20:49:22.369Z,23.89
2019-04-26T20:54:31.552Z,22.98
2019-04-26T20:59:37.558Z,25.20
2019-04-26T21:04:46.233Z,24.80
2019-04-26T21:09:52.858Z,24.55
2019-04-26T21:15:02.444Z,24.19
2019-04-26T21:20:08.870Z,24.88
2019-04-26T21:25:17.785Z,24.38
2019-04-26T21:30:25.590Z,24.02
2019-04-26T21:35:33.417Z,24.30
2019-04-26T21:40:41.268Z,23.55
2019-04-26T21:45:50.338Z,23.25
2019-04-26T21:50:58.199Z,24.59
2019-04-26T21:56:07.448Z,23.48
2019-04-26T22:01:15.715Z,24.61
2019-04-26T22:06:27.280Z,23.45
2019-04-26T22:11:28.476Z,22.88
2019-04-26T22:16:38.114Z,22.06
2019-04-26T22:21:43.637Z,23.51
2019-04-26T22:26:53.228Z,23.06
2019-04-26T22:32:00.230Z,24.64
2019-04-26T22:42:10.954Z,23.69
2019-04-26T22:47:18.678Z,24.20
2019-04-26T22:52:26.445Z,23.90
2019-04-26T22:57:34.694Z,23.65
2019-04-26T23:02:43.655Z,24.21
2019-04-26T23:07:50.255Z,24.05
2019-04-26T23:13:02.205Z,25.70
2019-04-26T23:18:08.319Z,24.86
2019-04-26T23:23:13.489Z,25.51
2019-04-26T23:28:19.998Z,25.24
2019-04-26T23:33:29.257Z,24.59
2019-04-26T23:38:37.731Z,24.30
2019-04-26T23:43:44.344Z,24.47
2019-04-26T23:48:53.734Z,24.82
2019-04-26T23:53:59.570Z,24.80
2019-04-26T23:59:07.271Z,26.30
